Time;durP1;ratioP1;P1;durP2;ratioP2;P2;SDS_P1;SDS_P2;PMS_P1;PMS_P2;Temp;Humidity;BMP_temperature;BMP_pressure;BME280_temperature;BME280_humidity;BME280_pressure;Samples;Min_cycle;Max_cycle;Signal;HPM_P1;HPM_P2
2023/03/22 06:02:28;;;;;;;9.52;4.60;;;;;;;;;;5111392;22;20147;-85
2023/03/22 06:05:01;;;;;;;9.60;4.10;;;10.00;99.90;;;;;;5094552;28;20028;-87
2023/03/22 06:07:28;;;;;;;8.68;4.65;;;;;;;;;;5070768;28;20024;-84
2023/03/22 06:09:55;;;;;;;7.95;4.70;;;10.10;99.90;;;;;;5076515;28;20035;-83
2023/03/22 06:12:24;;;;;;;10.48;4.15;;;10.10;99.90;;;;;;5055713;28;20044;-85
2023/03/22 06:18:12;;;;;;;7.30;4.20;;;10.10;99.90;;;;;;5096911;28;20119;-84
2023/03/22 06:20:38;;;;;;;7.00;4.50;;;10.10;99.90;;;;;;5074836;28;20051;-83
2023/03/22 06:23:04;;;;;;;9.35;4.07;;;;;;;;;;5091157;28;20032;-84
2023/03/22 06:25:30;;;;;;;10.68;4.20;;;;;;;;;;5074845;28;20122;-83
2023/03/22 06:27:56;;;;;;;8.48;4.32;;;;;;;;;;5076120;28;20392;-84
2023/03/22 06:30:22;;;;;;;9.02;3.95;;;10.20;99.90;;;;;;5074498;28;20020;-84
2023/03/22 06:32:48;;;;;;;8.23;4.03;;;10.20;99.90;;;;;;5074079;28;20387;-85
2023/03/22 06:35:14;;;;;;;6.65;4.25;;;10.10;99.90;;;;;;5075493;28;20032;-85
2023/03/22 06:37:40;;;;;;;7.93;4.28;;;10.10;99.90;;;;;;5069653;28;20038;-82
2023/03/22 06:40:06;;;;;;;9.02;4.50;;;10.20;99.90;;;;;;5077674;28;20063;-83
2023/03/22 06:42:33;;;;;;;8.35;4.10;;;10.20;99.90;;;;;;5068059;28;20028;-81
2023/03/22 06:44:58;;;;;;;6.15;3.95;;;10.20;99.90;;;;;;5071359;28;20028;-86
2023/03/22 06:47:25;;;;;;;6.57;3.75;;;10.30;99.90;;;;;;5070549;28;20027;-82
2023/03/22 06:49:50;;;;;;;7.85;4.00;;;10.30;99.90;;;;;;5067146;28;20040;-86
2023/03/22 06:52:16;;;;;;;8.85;4.05;;;10.40;99.90;;;;;;5078369;28;20037;-83
2023/03/22 06:54:45;;;;;;;7.13;3.95;;;10.50;99.90;;;;;;5064694;28;20025;-83
2023/03/22 06:57:11;;;;;;;8.13;3.95;;;10.40;99.90;;;;;;5066304;28;20123;-84
2023/03/22 06:59:37;;;;;;;7.03;3.90;;;;;;;;;;5068278;28;20024;-82
2023/03/22 07:02:03;;;;;;;7.47;4.50;;;10.60;99.90;;;;;;5065684;28;20455;-83
2023/03/22 07:04:29;;;;;;;9.05;4.50;;;;;;;;;;5065284;28;20119;-81
2023/03/22 07:06:55;;;;;;;8.20;4.30;;;10.70;99.90;;;;;;5089528;28;20020;-84
2023/03/22 07:09:22;;;;;;;8.88;3.78;;;11.10;99.90;;;;;;5080363;28;20054;-86
2023/03/22 07:11:51;;;;;;;8.27;4.70;;;12.60;99.90;;;;;;5084143;28;20123;-81
2023/03/22 07:14:17;;;;;;;7.47;3.97;;;;;;;;;;5083915;28;20028;-85
2023/03/22 07:16:43;;;;;;;10.02;4.07;;;;;;;;;;5083502;28;20020;-85
2023/03/22 07:19:10;;;;;;;9.20;3.97;;;;;;;;;;5087213;28;20046;-84
2023/03/22 07:21:37;;;;;;;8.80;4.00;;;;;;;;;;5081633;28;20076;-83
2023/03/22 07:24:03;;;;;;;7.18;4.38;;;;;;;;;;5105534;28;20072;-86
2023/03/22 07:26:29;;;;;;;9.35;4.72;;;;;;;;;;5106854;28;20044;-86
2023/03/22 07:28:56;;;;;;;8.05;4.35;;;;;;;;;;5101446;28;20992;-83
2023/03/22 07:31:21;;;;;;;5.85;3.72;;;11.00;99.90;;;;;;5090192;28;20016;-83
2023/03/22 07:33:47;;;;;;;9.45;4.40;;;;;;;;;;5111278;28;20044;-84
2023/03/22 07:36:13;;;;;;;7.45;4.30;;;11.00;99.90;;;;;;5080993;28;20039;-85
2023/03/22 07:38:39;;;;;;;10.20;4.80;;;11.10;99.90;;;;;;5084145;28;20042;-83
2023/03/22 07:41:05;;;;;;;6.97;4.00;;;;;;;;;;5078574;28;20052;-82
2023/03/22 07:43:31;;;;;;;8.68;3.88;;;11.30;99.90;;;;;;5097297;28;20028;-84
2023/03/22 07:45:57;;;;;;;7.13;3.75;;;;;;;;;;5103778;28;20028;-85
2023/03/22 07:48:23;;;;;;;8.27;3.80;;;;;;;;;;5080122;28;20055;-84
2023/03/22 07:50:54;;;;;;;6.43;3.67;;;;;;;;;;5082316;28;20032;-85
2023/03/22 07:53:20;;;;;;;10.73;3.25;;;;;;;;;;5080512;28;20061;-83
2023/03/22 07:55:47;;;;;;;8.10;3.65;;;13.40;99.90;;;;;;5074023;28;20035;-82
2023/03/22 07:58:12;;;;;;;6.88;3.30;;;12.10;99.90;;;;;;5080691;28;20035;-81
2023/03/22 08:00:38;;;;;;;7.03;3.05;;;;;;;;;;5074603;28;20021;-84
2023/03/22 08:03:05;;;;;;;5.13;2.70;;;;;;;;;;5075179;28;20048;-84
2023/03/22 08:05:31;;;;;;;6.22;2.85;;;;;;;;;;5072552;28;20058;-82
2023/03/22 08:07:57;;;;;;;5.78;2.95;;;;;;;;;;5077730;28;20020;-86
2023/03/22 08:10:23;;;;;;;5.80;2.80;;;;;;;;;;5080671;28;20020;-84
2023/03/22 08:12:49;;;;;;;4.38;2.80;;;;;;;;;;5076540;28;20036;-85
2023/03/22 08:15:15;;;;;;;6.90;3.10;;;;;;;;;;5079528;28;20056;-85
2023/03/22 08:17:41;;;;;;;7.47;3.35;;;;;;;;;;5083544;28;20039;-86
2023/03/22 08:20:07;;;;;;;4.80;2.67;;;;;;;;;;5080692;28;20035;-83
2023/03/22 08:22:37;;;;;;;5.60;2.33;;;;;;;;;;5075749;28;20028;-82
2023/03/22 08:25:03;;;;;;;5.10;2.67;;;;;;;;;;5077919;28;20066;-81
2023/03/22 08:27:30;;;;;;;5.85;2.60;;;;;;;;;;5086446;28;20024;-82
2023/03/22 08:29:57;;;;;;;3.70;2.20;;;;;;;;;;5085759;28;20027;-83
2023/03/22 08:32:23;;;;;;;5.60;2.05;;;;;;;;;;5088189;28;20027;-80
2023/03/22 08:34:49;;;;;;;6.32;2.55;;;;;;;;;;5088028;28;20256;-81
2023/03/22 08:37:19;;;;;;;4.72;2.40;;;;;;;;;;5088605;28;20109;-83
2023/03/22 08:39:45;;;;;;;6.97;2.40;;;;;;;;;;5083495;28;20024;-83
2023/03/22 08:42:11;;;;;;;4.97;2.10;;;;;;;;;;5080403;28;20036;-84
2023/03/22 08:44:36;;;;;;;5.80;2.47;;;;;;;;;;5100473;28;20028;-84
2023/03/22 08:47:02;;;;;;;5.15;2.50;;;;;;;;;;5084038;28;20043;-82
2023/03/22 08:49:28;;;;;;;4.95;2.10;;;;;;;;;;5080185;28;20016;-84
2023/03/22 08:51:56;;;;;;;3.58;1.70;;;;;;;;;;5084047;28;20472;-85
2023/03/22 08:54:22;;;;;;;3.72;1.75;;;;;;;;;;5093661;28;20088;-88
2023/03/22 08:56:49;;;;;;;4.25;2.00;;;;;;;;;;5080621;28;20331;-85
2023/03/22 08:59:15;;;;;;;3.05;1.60;;;;;;;;;;5074893;28;20480;-84
2023/03/22 09:01:41;;;;;;;4.22;2.17;;;;;;;;;;5074205;28;20454;-83
2023/03/22 09:04:07;;;;;;;3.47;1.70;;;;;;;;;;5098692;28;20132;-87
2023/03/22 09:06:34;;;;;;;3.80;1.90;;;;;;;;;;5065039;28;20480;-86
2023/03/22 09:09:00;;;;;;;4.20;2.00;;;;;;;;;;5070191;28;20111;-81
2023/03/22 09:11:26;;;;;;;2.38;1.65;;;;;;;;;;5079075;28;20023;-85
2023/03/22 09:13:52;;;;;;;4.55;1.90;;;;;;;;;;5076380;28;20050;-83
2023/03/22 09:16:18;;;;;;;3.72;1.90;;;;;;;;;;5072920;28;20754;-84
2023/03/22 09:18:44;;;;;;;2.50;1.58;;;;;;;;;;5076160;28;20031;-85
2023/03/22 09:21:11;;;;;;;3.47;1.85;;;;;;;;;;5082567;28;20096;-84
2023/03/22 09:23:37;;;;;;;5.07;1.80;;;;;;;;;;5086772;28;20058;-85
2023/03/22 09:26:05;;;;;;;3.10;1.92;;;;;;;;;;5080473;28;20024;-85
2023/03/22 09:28:31;;;;;;;4.22;2.08;;;;;;;;;;5071414;28;20024;-86
2023/03/22 09:31:01;;;;;;;4.15;1.60;;;;;;;;;;5080634;28;20024;-83
2023/03/22 09:33:27;;;;;;;5.72;1.88;;;;;;;;;;5084770;28;20035;-83
2023/03/22 09:35:55;;;;;;;3.45;1.63;;;14.40;99.90;;;;;;5099975;28;20046;-86
2023/03/22 09:38:22;;;;;;;2.97;1.40;;;;;;;;;;5080508;28;20032;-86
2023/03/22 09:41:01;;;;;;;4.50;1.60;;;14.50;99.90;;;;;;5079307;28;20054;-84
2023/03/22 09:43:33;;;;;;;2.45;1.40;;;;;;;;;;5076063;28;20032;-85
2023/03/22 09:45:59;;;;;;;2.05;1.20;;;;;;;;;;5079619;28;20705;-82
2023/03/22 09:48:31;;;;;;;4.05;1.42;;;14.60;99.90;;;;;;5091337;28;20024;-83
2023/03/22 09:50:57;;;;;;;2.72;1.40;;;;;;;;;;5081132;28;20046;-84
2023/03/22 09:53:25;;;;;;;4.05;1.75;;;;;;;;;;5075616;28;20046;-82
2023/03/22 09:56:17;;;;;;;4.10;1.35;;;14.70;99.90;;;;;;5068174;28;20034;-82
2023/03/22 09:58:43;;;;;;;7.30;1.48;;;;;;;;;;5075928;28;20024;-84
2023/03/22 10:01:30;;;;;;;1.40;1.02;;;14.60;99.90;;;;;;5085345;28;20119;-81
2023/03/22 10:04:17;;;;;;;3.10;1.38;;;14.60;99.90;;;;;;5072091;28;20118;-83
2023/03/22 10:06:48;;;;;;;2.50;1.20;;;;;;;;;;5067512;28;20031;-85
2023/03/22 10:09:14;;;;;;;2.20;1.17;;;;;;;;;;5071250;28;20035;-83
2023/03/22 10:11:43;;;;;;;4.85;1.25;;;;;;;;;;5070790;28;20111;-85
2023/03/22 10:14:19;;;;;;;2.50;1.40;;;;;;;;;;5096058;28;20124;-84
2023/03/22 10:16:45;;;;;;;2.33;1.20;;;;;;;;;;5091074;28;20024;-84
2023/03/22 10:19:32;;;;;;;3.97;1.30;;;;;;;;;;5078934;28;20081;-85
2023/03/22 10:22:01;;;;;;;5.32;1.38;;;;;;;;;;5069973;28;20036;-85
2023/03/22 10:24:29;;;;;;;3.05;1.40;;;;;;;;;;5091304;28;20027;-86
2023/03/22 10:26:55;;;;;;;2.25;1.15;;;;;;;;;;5076784;28;20035;-83
2023/03/22 10:29:34;;;;;;;4.60;1.55;;;;;;;;;;5072780;28;20031;-83
2023/03/22 10:32:20;;;;;;;3.75;1.40;;;;;;;;;;5071879;28;20051;-86
2023/03/22 10:34:48;;;;;;;3.47;1.60;;;;;;;;;;5041351;28;20389;-84
2023/03/22 10:37:16;;;;;;;2.58;1.52;;;;;;;;;;5082395;28;20026;-85
2023/03/22 10:39:45;;;;;;;5.15;1.70;;;;;;;;;;5081670;28;20071;-84
2023/03/22 10:42:12;;;;;;;3.15;1.63;;;;;;;;;;5075406;28;20260;-85
2023/03/22 10:44:44;;;;;;;3.17;1.40;;;;;;;;;;5077730;28;20507;-87
2023/03/22 10:47:11;;;;;;;3.92;1.45;;;;;;;;;;5079215;28;20073;-86
2023/03/22 10:49:43;;;;;;;4.07;1.70;;;;;;;;;;5084854;28;20039;-83
2023/03/22 10:52:20;;;;;;;3.53;1.80;;;;;;;;;;5080327;28;20032;-85
2023/03/22 10:54:46;;;;;;;2.90;1.52;;;;;;;;;;5079380;28;20032;-87
2023/03/22 10:57:12;;;;;;;4.10;1.70;;;;;;;;;;5081710;28;20032;-87
2023/03/22 10:59:43;;;;;;;2.10;1.35;;;;;;;;;;5097047;28;20028;-84
2023/03/22 11:02:23;;;;;;;4.15;1.77;;;;;;;;;;5097739;28;20054;-88
2023/03/22 11:04:54;;;;;;;3.05;1.55;;;;;;;;;;5083219;28;20084;-85
2023/03/22 11:07:30;;;;;;;5.38;1.70;;;;;;;;;;5102424;28;20036;-86
2023/03/22 11:09:59;;;;;;;6.22;2.75;;;;;;;;;;5096529;28;20047;-87
2023/03/22 11:12:25;;;;;;;3.47;1.83;;;;;;;;;;5086789;28;20028;-87
2023/03/22 11:14:52;;;;;;;2.15;1.15;;;;;;;;;;5091827;28;20035;-83
2023/03/22 11:17:27;;;;;;;2.47;1.30;;;;;;;;;;5092907;28;20027;-84
2023/03/22 11:19:55;;;;;;;2.50;1.50;;;;;;;;;;5090892;28;20119;-88
2023/03/22 11:22:30;;;;;;;2.95;1.20;;;;;;;;;;5092753;28;20067;-83
2023/03/22 11:24:57;;;;;;;2.50;1.00;;;;;;;;;;5091750;28;20035;-84
2023/03/22 11:27:29;;;;;;;3.15;1.40;;;16.50;99.90;;;;;;5101141;28;20024;-86
2023/03/22 11:29:59;;;;;;;2.13;1.20;;;;;;;;;;5072646;28;20370;-87
2023/03/22 11:32:25;;;;;;;;;;;;;;;;;;5069449;28;20024;-87
2023/03/22 11:34:58;;;;;;;2.90;1.27;;;;;;;;;;5068835;28;19911;-88
2023/03/22 11:37:24;;;;;;;2.00;1.08;;;;;;;;;;5071599;28;20431;-84
2023/03/22 11:39:50;;;;;;;2.08;1.27;;;;;;;;;;5086479;28;20042;-85
2023/03/22 11:42:20;;;;;;;3.47;1.40;;;;;;;;;;5106596;28;20039;-84
2023/03/22 11:44:46;;;;;;;3.42;1.08;;;;;;;;;;5092559;28;20145;-84
2023/03/22 11:47:13;;;;;;;1.80;1.00;;;;;;;;;;5086342;28;20028;-83
2023/03/22 11:49:43;;;;;;;3.30;1.10;;;;;;;;;;5081401;28;20024;-81
2023/03/22 11:52:12;;;;;;;2.40;1.33;;;;;;;;;;5081257;28;20017;-85
2023/03/22 11:54:41;;;;;;;4.07;1.55;;;16.70;99.90;;;;;;5063987;28;20507;-84
2023/03/22 11:57:09;;;;;;;4.43;1.10;;;;;;;;;;5074097;28;20020;-88
2023/03/22 11:59:47;;;;;;;2.95;1.58;;;16.90;99.90;;;;;;5094966;28;20170;-85
2023/03/22 12:02:19;;;;;;;3.60;1.50;;;;;;;;;;5086267;28;20028;-86
2023/03/22 12:04:47;;;;;;;1.55;0.88;;;;;;;;;;5094020;28;20020;-85
2023/03/22 12:07:14;;;;;;;2.20;1.10;;;;;;;;;;5093466;28;20138;-85
2023/03/22 12:09:43;;;;;;;3.00;1.05;;;;;;;;;;5092082;28;20016;-86
2023/03/22 12:12:15;;;;;;;2.88;1.02;;;;;;;;;;5092087;28;20036;-85
2023/03/22 12:15:00;;;;;;;1.52;0.90;;;;;;;;;;5076465;28;20024;-85
2023/03/22 12:17:29;;;;;;;2.42;1.17;;;;;;;;;;5110065;28;20034;-84
2023/03/22 12:20:11;;;;;;;1.58;1.02;;;;;;;;;;5109132;28;20028;-85
2023/03/22 12:22:42;;;;;;;2.15;1.13;;;;;;;;;;5108944;28;20020;-84
2023/03/22 12:25:12;;;;;;;2.53;1.10;;;;;;;;;;5107448;28;20028;-84
2023/03/22 12:27:41;;;;;;;1.35;0.90;;;;;;;;;;5108968;28;20004;-86
2023/03/22 12:30:12;;;;;;;4.00;0.90;;;;;;;;;;5108503;28;20023;-83
2023/03/22 12:32:59;;;;;;;4.68;1.30;;;;;;;;;;5108194;28;20023;-84
2023/03/22 12:35:27;;;;;;;2.80;1.20;;;;;;;;;;5108302;28;20024;-81
2023/03/22 12:37:58;;;;;;;3.22;1.15;;;;;;;;;;5098649;28;20103;-86
2023/03/22 12:40:51;;;;;;;1.85;1.20;;;;;;;;;;5092177;28;20024;-85
2023/03/22 12:43:21;;;;;;;2.15;0.90;;;;;;;;;;5088462;28;20043;-86
2023/03/22 12:45:58;;;;;;;4.15;1.00;;;;;;;;;;5091021;28;20027;-85
2023/03/22 12:48:31;;;;;;;1.95;1.15;;;;;;;;;;5094381;28;20063;-86
2023/03/22 12:50:59;;;;;;;3.47;1.20;;;;;;;;;;5108400;28;20057;-84
2023/03/22 12:53:27;;;;;;;4.57;1.20;;;;;;;;;;5086718;28;20028;-81
2023/03/22 12:55:54;;;;;;;1.58;0.90;;;;;;;;;;5094394;28;20020;-86
2023/03/22 12:58:22;;;;;;;2.67;1.00;;;;;;;;;;5085425;28;20484;-83
2023/03/22 13:00:59;;;;;;;2.25;0.98;;;;;;;;;;5091692;28;20088;-85
2023/03/22 13:03:27;;;;;;;3.60;1.10;;;;;;;;;;5084284;28;20008;-84
2023/03/22 13:06:01;;;;;;;2.30;0.90;;;;;;;;;;5103392;28;20028;-85
2023/03/22 13:08:47;;;;;;;2.10;0.88;;;;;;;;;;5077422;28;20020;-84
2023/03/22 13:11:21;;;;;;;2.03;0.80;;;;;;;;;;5094441;28;20081;-83
2023/03/22 13:13:47;;;;;;;3.15;1.10;;;;;;;;;;5101751;28;20034;-85
2023/03/22 13:16:16;;;;;;;1.77;1.10;;;;;;;;;;5066293;28;20036;-83
2023/03/22 13:18:42;;;;;;;1.88;1.00;;;;;;;;;;5084137;28;20024;-81
2023/03/22 13:21:15;;;;;;;1.83;0.90;;;;;;;;;;5081255;28;20028;-84
2023/03/22 13:24:00;;;;;;;2.05;0.70;;;;;;;;;;5083662;28;20020;-81
2023/03/22 13:26:46;;;;;;;2.95;1.02;;;;;;;;;;5097030;28;20031;-87
2023/03/22 13:29:17;;;;;;;1.92;1.00;;;;;;;;;;5100501;28;20028;-85
2023/03/22 13:31:45;;;;;;;5.80;1.27;;;;;;;;;;5090940;28;20016;-83
2023/03/22 13:34:13;;;;;;;2.22;0.98;;;;;;;;;;5084851;28;20091;-83
2023/03/22 13:36:39;;;;;;;2.03;0.98;;;;;;;;;;5089518;28;20035;-85
2023/03/22 13:39:08;;;;;;;2.00;0.80;;;;;;;;;;5083020;28;20053;-87
2023/03/22 13:41:35;;;;;;;2.30;0.90;;;;;;;;;;5085310;28;20028;-85
2023/03/22 13:44:02;;;;;;;3.28;1.58;;;;;;;;;;5084824;28;20039;-86
2023/03/22 13:46:48;;;;;;;2.10;1.00;;;;;;;;;;5085602;28;20027;-84
2023/03/22 13:49:41;;;;;;;6.38;1.75;;;;;;;;;;5080530;28;20523;-84
2023/03/22 13:52:07;;;;;;;1.77;0.98;;;;;;;;;;5080766;28;20333;-83
2023/03/22 13:54:47;;;;;;;3.75;1.08;;;;;;;;;;5071195;28;20032;-86
2023/03/22 13:57:36;;;;;;;2.97;1.30;;;;;;;;;;5082719;28;20124;-85
2023/03/22 14:00:17;;;;;;;1.90;0.95;;;;;;;;;;5074607;28;20024;-85
2023/03/22 14:02:44;;;;;;;1.42;0.80;;;;;;;;;;5080959;28;20032;-84
2023/03/22 14:05:13;;;;;;;2.33;1.20;;;;;;;;;;5081353;28;20042;-86
2023/03/22 14:07:45;;;;;;;3.33;1.10;;;;;;;;;;5082020;28;20116;-83
2023/03/22 14:10:11;;;;;;;1.92;0.93;;;;;;;;;;5078469;28;20106;-81
2023/03/22 14:12:46;;;;;;;2.38;1.00;;;;;;;;;;5086664;28;20050;-85
2023/03/22 14:15:15;;;;;;;4.03;0.90;;;;;;;;;;5084665;28;20024;-85
2023/03/22 14:17:50;;;;;;;1.35;0.93;;;19.00;83.60;;;;;;5079379;28;20036;-82
2023/03/22 14:20:21;;;;;;;2.42;0.95;;;19.00;83.80;;;;;;5080634;28;20017;-84
2023/03/22 14:22:52;;;;;;;1.45;0.85;;;19.10;83.00;;;;;;5081406;28;20095;-84
2023/03/22 14:25:21;;;;;;;1.98;1.02;;;18.90;82.40;;;;;;5066972;28;20029;-83
2023/03/22 14:27:47;;;;;;;1.65;0.80;;;;;;;;;;5072258;28;20020;-87
2023/03/22 14:30:40;;;;;;;2.75;1.20;;;;;;;;;;5061309;28;20031;-86
2023/03/22 14:33:18;;;;;;;1.05;0.82;;;;;;;;;;5084454;28;20033;-83
2023/03/22 14:35:46;;;;;;;1.73;0.85;;;;;;;;;;5078568;28;20058;-85
2023/03/22 14:38:17;;;;;;;1.40;0.80;;;;;;;;;;5073756;28;20087;-83
2023/03/22 14:40:44;;;;;;;1.52;0.80;;;;;;;;;;5082027;28;20761;-82
2023/03/22 14:43:19;;;;;;;2.70;0.95;;;;;;;;;;5076438;28;20044;-84
2023/03/22 14:45:46;;;;;;;1.25;0.80;;;;;;;;;;5076916;28;20124;-84
2023/03/22 14:48:22;;;;;;;2.35;0.80;;;;;;;;;;5076985;28;20031;-87
2023/03/22 14:50:49;;;;;;;2.03;1.00;;;;;;;;;;5091696;28;20020;-86
2023/03/22 14:53:17;;;;;;;3.20;1.10;;;;;;;;;;5076689;28;20059;-85
2023/03/22 14:55:44;;;;;;;4.03;0.98;;;;;;;;;;5078408;28;20032;-84
2023/03/22 14:58:12;;;;;;;1.90;0.90;;;;;;;;;;5077848;28;20036;-87
2023/03/22 15:00:39;;;;;;;2.03;1.02;;;;;;;;;;5074894;28;20032;-85
2023/03/22 15:03:11;;;;;;;1.52;0.93;;;17.80;79.00;;;;;;5080702;28;20096;-84
2023/03/22 15:05:41;;;;;;;1.48;0.90;;;;;;;;;;5082927;28;20019;-84
2023/03/22 15:08:07;;;;;;;2.38;0.88;;;;;;;;;;5089831;28;20088;-85
2023/03/22 15:10:34;;;;;;;3.25;1.30;;;;;;;;;;5074846;28;20060;-87
2023/03/22 15:13:02;;;;;;;2.90;1.00;;;;;;;;;;5093784;28;20036;-83
2023/03/22 15:15:30;;;;;;;3.35;1.20;;;;;;;;;;5087117;28;20055;-84
2023/03/22 15:17:58;;;;;;;3.55;1.10;;;17.80;77.00;;;;;;5085703;28;20082;-84
2023/03/22 15:20:26;;;;;;;4.28;1.77;;;;;;;;;;5082504;28;20028;-83
2023/03/22 15:22:54;;;;;;;2.50;1.20;;;;;;;;;;5070059;28;20029;-85
2023/03/22 15:25:20;;;;;;;2.17;1.05;;;;;;;;;;5063601;28;20043;-84
2023/03/22 15:27:46;;;;;;;5.57;2.53;;;;;;;;;;5065986;28;20028;-84
2023/03/22 15:30:17;;;;;;;3.30;1.60;;;;;;;;;;5066677;28;20024;-84
2023/03/22 15:32:43;;;;;;;2.22;1.20;;;;;;;;;;5085899;28;20032;-84
2023/03/22 15:35:13;;;;;;;3.28;0.90;;;;;;;;;;5066810;28;20028;-85
2023/03/22 15:37:40;;;;;;;4.55;0.75;;;;;;;;;;5068705;28;20029;-83
2023/03/22 15:40:09;;;;;;;8.20;1.20;;;;;;;;;;5106001;28;20020;-85
2023/03/22 15:42:41;;;;;;;1.90;0.90;;;;;;;;;;5104884;28;20024;-86
2023/03/22 15:45:20;;;;;;;2.58;0.93;;;;;;;;;;5086015;28;20039;-84
2023/03/22 15:47:50;;;;;;;2.25;1.10;;;;;;;;;;5087534;28;20096;-84
2023/03/22 15:50:17;;;;;;;2.13;1.20;;;;;;;;;;5085228;28;20046;-83
2023/03/22 15:52:50;;;;;;;1.45;0.80;;;;;;;;;;5086178;28;20036;-83
2023/03/22 15:55:17;;;;;;;4.35;1.40;;;;;;;;;;5088250;28;20019;-85
2023/03/22 15:57:49;;;;;;;3.47;1.75;;;;;;;;;;5088709;28;20051;-86
2023/03/22 16:00:23;;;;;;;4.97;1.20;;;;;;;;;;5106417;28;20053;-86
2023/03/22 16:02:51;;;;;;;10.82;1.95;;;;;;;;;;5088228;28;20035;-84
2023/03/22 16:05:18;;;;;;;2.40;1.13;;;;;;;;;;5087371;28;20024;-86
2023/03/22 16:07:44;;;;;;;87.28;4.75;;;;;;;;;;5087402;28;20557;-84
2023/03/22 16:10:18;;;;;;;6.47;1.10;;;17.10;79.10;;;;;;5094971;28;20088;-83
2023/03/22 16:12:44;;;;;;;2.90;0.93;;;;;;;;;;5100631;28;20039;-86
2023/03/22 16:15:22;;;;;;;3.20;0.95;;;16.90;79.90;;;;;;5100515;28;20012;-86
2023/03/22 16:17:49;;;;;;;3.33;1.38;;;;;;;;;;5085175;28;20054;-86
2023/03/22 16:20:15;;;;;;;5.53;1.42;;;;;;;;;;5069114;28;20063;-87
2023/03/22 16:22:45;;;;;;;7.05;1.73;;;16.60;81.30;;;;;;5065151;28;20032;-85
2023/03/22 16:25:15;;;;;;;5.63;1.45;;;;;;;;;;5066501;28;20029;-85
2023/03/22 16:27:41;;;;;;;6.75;0.95;;;;;;;;;;5102808;28;20110;-86
2023/03/22 16:30:08;;;;;;;6.78;3.25;;;;;;;;;;5085999;28;20020;-86
2023/03/22 16:32:34;;;;;;;5.28;1.63;;;;;;;;;;5103518;28;20020;-84
2023/03/22 16:35:00;;;;;;;7.18;1.45;;;;;;;;;;5083912;28;20032;-86
2023/03/22 16:37:26;;;;;;;4.47;1.50;;;;;;;;;;5084058;28;20059;-88
2023/03/22 16:39:53;;;;;;;4.00;1.75;;;;;;;;;;5066367;28;20056;-86
2023/03/22 16:42:24;;;;;;;4.57;1.90;;;;;;;;;;5083703;28;20032;-85
2023/03/22 16:44:52;;;;;;;3.97;1.85;;;;;;;;;;5066809;28;20024;-86
2023/03/22 16:47:23;;;;;;;5.38;2.00;;;16.40;84.70;;;;;;5065777;28;20078;-84
2023/03/22 16:49:49;;;;;;;3.47;1.60;;;;;;;;;;5065973;28;20656;-82
2023/03/22 16:52:20;;;;;;;6.97;1.58;;;;;;;;;;5075988;28;20054;-85
2023/03/22 16:54:46;;;;;;;4.15;1.50;;;;;;;;;;5084760;28;20028;-83
2023/03/22 16:57:14;;;;;;;5.93;1.85;;;;;;;;;;5085252;28;20028;-84
2023/03/22 16:59:40;;;;;;;6.07;1.80;;;;;;;;;;5084981;28;20032;-85
2023/03/22 17:02:27;;;;;;;3.58;1.60;;;;;;;;;;5102939;28;20047;-84
2023/03/22 17:04:53;;;;;;;8.48;1.40;;;;;;;;;;5084223;28;20032;-86
2023/03/22 17:07:24;;;;;;;3.40;1.30;;;;;;;;;;5074244;28;20032;-84
2023/03/22 17:09:51;;;;;;;4.30;1.48;;;;;;;;;;5063143;28;20477;-85
2023/03/22 17:12:28;;;;;;;5.22;1.48;;;16.10;90.10;;;;;;5063773;28;20534;-85
2023/03/22 17:14:55;;;;;;;3.05;1.30;;;;;;;;;;5080928;28;20032;-84
2023/03/22 17:17:21;;;;;;;3.15;1.33;;;;;;;;;;5087043;28;20479;-86
2023/03/22 17:19:48;;;;;;;4.25;1.90;;;;;;;;;;5084166;28;20024;-84
2023/03/22 17:22:14;;;;;;;8.10;4.32;;;;;;;;;;5086097;28;20024;-85
2023/03/22 17:24:41;;;;;;;3.80;1.58;;;;;;;;;;5117905;28;20032;-83
2023/03/22 17:27:09;;;;;;;4.78;1.95;;;;;;;;;;5090012;28;20020;-84
2023/03/22 17:29:36;;;;;;;7.43;2.20;;;;;;;;;;5075692;28;20024;-83
2023/03/22 17:32:03;;;;;;;3.55;1.63;;;;;;;;;;5086567;28;20251;-82
2023/03/22 17:34:30;;;;;;;3.85;1.30;;;;;;;;;;5085058;28;20036;-85
2023/03/22 17:36:56;;;;;;;3.75;1.65;;;;;;;;;;5087216;28;20110;-83
2023/03/22 17:39:22;;;;;;;5.30;1.65;;;;;;;;;;5086514;28;20028;-85
2023/03/22 17:41:48;;;;;;;3.20;1.60;;;;;;;;;;5104745;28;20032;-84
2023/03/22 17:44:14;;;;;;;3.55;1.30;;;;;;;;;;5074447;28;20066;-85
2023/03/22 17:46:40;;;;;;;2.53;1.40;;;;;;;;;;5066561;28;20059;-81
2023/03/22 17:49:06;;;;;;;4.10;1.40;;;;;;;;;;5084617;28;20035;-84
2023/03/22 17:51:32;;;;;;;3.28;1.50;;;;;;;;;;5066510;28;20031;-85
2023/03/22 17:53:58;;;;;;;5.53;1.55;;;;;;;;;;5065124;28;20031;-84
2023/03/22 17:56:24;;;;;;;3.20;1.33;;;;;;;;;;5065471;28;20032;-83
2023/03/22 17:58:50;;;;;;;5.95;1.67;;;;;;;;;;5064874;28;20078;-84
2023/03/22 18:01:17;;;;;;;5.80;1.58;;;;;;;;;;5057451;22;20456;-82
2023/03/22 18:03:44;;;;;;;4.15;1.63;;;15.60;95.40;;;;;;5038613;28;20141;-85
2023/03/22 18:06:10;;;;;;;4.18;1.77;;;;;;;;;;5000727;28;20065;-82
2023/03/22 18:08:36;;;;;;;5.40;1.98;;;;;;;;;;5019086;28;20030;-84
2023/03/22 18:11:05;;;;;;;4.53;2.35;;;;;;;;;;5028705;28;20026;-83
2023/03/22 18:13:32;;;;;;;3.05;1.48;;;;;;;;;;5032592;28;20120;-84
2023/03/22 18:15:58;;;;;;;5.53;1.63;;;;;;;;;;5031399;28;20033;-84
2023/03/22 18:18:24;;;;;;;5.72;2.30;;;;;;;;;;5033707;28;20044;-87
2023/03/22 18:20:50;;;;;;;4.25;2.08;;;;;;;;;;5038343;28;20060;-84
2023/03/22 18:23:16;;;;;;;3.55;1.65;;;;;;;;;;5038653;28;20030;-85
2023/03/22 18:25:43;;;;;;;3.58;1.70;;;;;;;;;;5039746;28;20390;-83
2023/03/22 18:28:09;;;;;;;2.80;1.27;;;;;;;;;;5041814;28;20060;-84
2023/03/22 18:30:35;;;;;;;3.67;1.58;;;;;;;;;;5042990;28;20033;-83
2023/03/22 18:33:02;;;;;;;3.80;1.70;;;;;;;;;;5033634;28;20690;-86
2023/03/22 18:35:28;;;;;;;4.18;1.80;;;;;;;;;;5035081;28;20029;-85
2023/03/22 18:37:54;;;;;;;7.63;2.10;;;;;;;;;;5032283;28;20034;-86
2023/03/22 18:40:20;;;;;;;3.97;1.60;;;;;;;;;;5035364;28;20025;-86
2023/03/22 18:42:46;;;;;;;6.50;1.77;;;;;;;;;;5029725;28;20033;-86
2023/03/22 18:45:17;;;;;;;5.03;2.00;;;;;;;;;;5042865;28;20021;-84
2023/03/22 18:47:42;;;;;;;;;;;15.40;96.80;;;;;;5057129;28;20027;-85
2023/03/22 18:50:10;;;;;;;10.15;1.92;;;15.30;97.50;;;;;;5038290;28;19909;-84
2023/03/22 18:52:36;;;;;;;3.75;1.77;;;15.30;97.60;;;;;;5039580;28;20018;-84
2023/03/22 18:55:04;;;;;;;3.78;1.85;;;13.10;97.20;;;;;;5036229;28;20014;-84
2023/03/22 18:57:30;;;;;;;5.75;2.05;;;;;;;;;;5039447;28;20029;-83
2023/03/22 18:59:57;;;;;;;5.07;1.63;;;;;;;;;;5039294;28;20045;-84
2023/03/22 19:02:23;;;;;;;5.88;1.90;;;;;;;;;;5042091;28;20113;-83
2023/03/22 19:04:49;;;;;;;8.07;2.40;;;;;;;;;;5038357;28;20025;-85
2023/03/22 19:07:19;;;;;;;4.63;2.03;;;;;;;;;;5041389;28;20037;-85
2023/03/22 19:09:45;;;;;;;4.25;1.67;;;;;;;;;;5044270;28;20026;-85
2023/03/22 19:12:11;;;;;;;4.43;1.50;;;;;;;;;;5041412;28;20045;-84
2023/03/22 19:14:37;;;;;;;3.95;1.90;;;;;;;;;;5042043;28;20029;-81
2023/03/22 19:17:04;;;;;;;2.58;1.60;;;;;;;;;;5044613;28;20067;-85
2023/03/22 19:19:32;;;;;;;4.00;1.55;;;;;;;;;;5039656;28;20116;-84
2023/03/22 19:21:58;;;;;;;5.75;2.38;;;;;;;;;;5041619;28;20437;-85
2023/03/22 19:24:27;;;;;;;5.78;3.10;;;;;;;;;;5052700;28;20040;-83
2023/03/22 19:26:54;;;;;;;6.88;2.63;;;;;;;;;;5046811;28;20028;-84
2023/03/22 19:29:24;;;;;;;10.52;6.13;;;;;;;;;;5054078;28;20022;-83
2023/03/22 19:31:50;;;;;;;11.60;7.80;;;;;;;;;;5043396;28;20044;-82
2023/03/22 19:34:16;;;;;;;7.10;4.60;;;;;;;;;;5035193;28;20033;-81
2023/03/22 19:36:42;;;;;;;7.35;5.05;;;;;;;;;;5040917;28;20024;-83
2023/03/22 19:39:08;;;;;;;5.18;2.50;;;;;;;;;;5044302;28;20025;-83
2023/03/22 19:41:34;;;;;;;3.53;1.83;;;;;;;;;;5038621;28;20029;-86
2023/03/22 19:44:00;;;;;;;5.55;1.73;;;;;;;;;;5059126;28;20112;-84
2023/03/22 19:46:28;;;;;;;5.00;2.40;;;;;;;;;;5041369;28;20076;-83
2023/03/22 19:48:56;;;;;;;4.18;2.20;;;;;;;;;;5043155;28;20033;-84
2023/03/22 19:51:22;;;;;;;5.95;2.30;;;;;;;;;;5042962;28;20086;-86
2023/03/22 19:53:48;;;;;;;3.95;1.63;;;;;;;;;;5041935;28;20049;-83
2023/03/22 19:56:14;;;;;;;4.55;1.90;;;;;;;;;;5039966;28;20021;-85
2023/03/22 19:58:40;;;;;;;5.03;1.63;;;;;;;;;;5041642;28;20025;-86
2023/03/22 20:01:10;;;;;;;5.07;1.45;;;;;;;;;;5042823;28;20386;-83
2023/03/22 20:03:37;;;;;;;4.35;1.88;;;;;;;;;;5042130;28;20029;-85
2023/03/22 20:06:08;;;;;;;5.95;2.00;;;;;;;;;;5042387;28;20076;-86
2023/03/22 20:08:37;;;;;;;;;;;15.20;98.30;;;;;;5042929;28;20033;-85
2023/03/22 20:11:04;;;;;;;4.30;2.08;;;;;;;;;;5042909;28;19940;-85
2023/03/22 20:13:30;;;;;;;3.38;1.52;;;;;;;;;;5040619;28;20619;-85
2023/03/22 20:15:56;;;;;;;5.38;2.30;;;;;;;;;;5040446;28;20048;-83
2023/03/22 20:18:22;;;;;;;4.15;1.85;;;;;;;;;;5035534;28;20036;-85
2023/03/22 20:20:50;;;;;;;3.20;1.70;;;;;;;;;;5055332;28;20030;-84
2023/03/22 20:23:17;;;;;;;3.63;1.40;;;;;;;;;;5042672;28;20452;-84
2023/03/22 20:25:49;;;;;;;4.85;1.60;;;;;;;;;;5040845;28;20021;-83
2023/03/22 20:28:15;;;;;;;2.63;1.50;;;;;;;;;;5036228;28;20037;-83
2023/03/22 20:30:41;;;;;;;5.40;1.70;;;;;;;;;;5041731;28;20187;-84
2023/03/22 20:33:07;;;;;;;4.53;1.63;;;;;;;;;;5045848;28;20026;-82
2023/03/22 20:35:33;;;;;;;6.60;2.42;;;;;;;;;;5040501;28;20026;-85
2023/03/22 20:37:59;;;;;;;6.20;1.90;;;;;;;;;;5046608;28;20135;-82